sensor_id;sensor_type;location;lat;lon;timestamp;temperature;humidity
14093;DHT22;7123;49.468;10.992;2024-02-26T00:00:23;8.40;99.90
14093;DHT22;7123;49.468;10.992;2024-02-26T00:02:50;8.40;99.90
14093;DHT22;7123;49.468;10.992;2024-02-26T00:05:17;8.40;99.90
14093;DHT22;7123;49.468;10.992;2024-02-26T00:07:44;8.30;99.90
14093;DHT22;7123;49.468;10.992;2024-02-26T00:10:11;8.30;99.90
14093;DHT22;7123;49.468;10.992;2024-02-26T00:12:39;8.30;99.90
14093;DHT22;7123;49.468;10.992;2024-02-26T00:15:11;8.30;99.90
14093;DHT22;7123;49.468;10.992;2024-02-26T00:17:38;8.30;99.90
14093;DHT22;7123;49.468;10.992;2024-02-26T00:20:07;8.30;99.90
14093;DHT22;7123;49.468;10.992;2024-02-26T00:22:37;8.20;99.90
14093;DHT22;7123;49.468;10.992;2024-02-26T00:25:08;8.20;99.90
14093;DHT22;7123;49.468;10.992;2024-02-26T00:27:44;8.20;99.90
14093;DHT22;7123;49.468;10.992;2024-02-26T00:30:11;8.10;99.90
14093;DHT22;7123;49.468;10.992;2024-02-26T00:32:38;8.10;99.90
14093;DHT22;7123;49.468;10.992;2024-02-26T00:35:06;8.10;99.90
14093;DHT22;7123;49.468;10.992;2024-02-26T00:37:33;8.10;99.90
14093;DHT22;7123;49.468;10.992;2024-02-26T00:40:03;8.00;99.90
14093;DHT22;7123;49.468;10.992;2024-02-26T00:42:30;8.00;99.90
14093;DHT22;7123;49.468;10.992;2024-02-26T00:44:57;8.00;99.90
14093;DHT22;7123;49.468;10.992;2024-02-26T00:47:26;8.00;99.90
14093;DHT22;7123;49.468;10.992;2024-02-26T00:49:53;7.90;99.90
14093;DHT22;7123;49.468;10.992;2024-02-26T00:52:20;7.90;99.90
14093;DHT22;7123;49.468;10.992;2024-02-26T00:54:47;7.90;99.90
14093;DHT22;7123;49.468;10.992;2024-02-26T00:57:15;7.90;99.90
14093;DHT22;7123;49.468;10.992;2024-02-26T00:59:42;7.90;99.90
14093;DHT22;7123;49.468;10.992;2024-02-26T01:02:10;7.90;99.90
14093;DHT22;7123;49.468;10.992;2024-02-26T01:04:37;7.90;99.90
14093;DHT22;7123;49.468;10.992;2024-02-26T01:07:04;7.90;99.90
14093;DHT22;7123;49.468;10.992;2024-02-26T01:09:31;7.90;99.90
14093;DHT22;7123;49.468;10.992;2024-02-26T01:11:59;7.90;99.90
14093;DHT22;7123;49.468;10.992;2024-02-26T01:14:26;7.90;99.90
14093;DHT22;7123;49.468;10.992;2024-02-26T01:16:54;8.00;99.90
14093;DHT22;7123;49.468;10.992;2024-02-26T01:19:21;7.90;99.90
14093;DHT22;7123;49.468;10.992;2024-02-26T01:21:48;8.00;99.90
14093;DHT22;7123;49.468;10.992;2024-02-26T01:24:15;7.90;99.90
14093;DHT22;7123;49.468;10.992;2024-02-26T01:26:43;7.90;99.90
14093;DHT22;7123;49.468;10.992;2024-02-26T01:29:10;7.90;99.90
14093;DHT22;7123;49.468;10.992;2024-02-26T01:31:39;7.90;99.90
14093;DHT22;7123;49.468;10.992;2024-02-26T01:34:06;7.90;99.90
14093;DHT22;7123;49.468;10.992;2024-02-26T01:36:33;7.90;99.90
14093;DHT22;7123;49.468;10.992;2024-02-26T01:39:01;7.90;99.90
14093;DHT22;7123;49.468;10.992;2024-02-26T01:41:30;7.80;99.90
14093;DHT22;7123;49.468;10.992;2024-02-26T01:43:57;7.80;99.90
14093;DHT22;7123;49.468;10.992;2024-02-26T01:46:24;7.80;99.90
14093;DHT22;7123;49.468;10.992;2024-02-26T01:48:58;7.70;99.90
14093;DHT22;7123;49.468;10.992;2024-02-26T01:51:25;7.70;99.90
14093;DHT22;7123;49.468;10.992;2024-02-26T01:53:52;7.80;99.90
14093;DHT22;7123;49.468;10.992;2024-02-26T01:56:20;7.70;99.90
14093;DHT22;7123;49.468;10.992;2024-02-26T01:58:48;7.70;99.90
14093;DHT22;7123;49.468;10.992;2024-02-26T02:01:16;7.70;99.90
14093;DHT22;7123;49.468;10.992;2024-02-26T02:03:45;7.70;99.90
14093;DHT22;7123;49.468;10.992;2024-02-26T02:06:13;7.70;99.90
14093;DHT22;7123;49.468;10.992;2024-02-26T02:08:40;7.70;99.90
14093;DHT22;7123;49.468;10.992;2024-02-26T02:11:07;7.80;99.90
14093;DHT22;7123;49.468;10.992;2024-02-26T02:13:34;7.80;99.90
14093;DHT22;7123;49.468;10.992;2024-02-26T02:16:01;7.80;99.90
14093;DHT22;7123;49.468;10.992;2024-02-26T02:18:27;7.80;99.90
14093;DHT22;7123;49.468;10.992;2024-02-26T02:20:54;7.80;99.90
14093;DHT22;7123;49.468;10.992;2024-02-26T02:23:22;7.80;99.90
14093;DHT22;7123;49.468;10.992;2024-02-26T02:25:49;7.80;99.90
14093;DHT22;7123;49.468;10.992;2024-02-26T02:28:16;7.80;99.90
14093;DHT22;7123;49.468;10.992;2024-02-26T02:30:43;7.80;99.90
14093;DHT22;7123;49.468;10.992;2024-02-26T02:33:10;7.70;99.90
14093;DHT22;7123;49.468;10.992;2024-02-26T02:35:39;7.70;99.90
14093;DHT22;7123;49.468;10.992;2024-02-26T02:38:05;7.70;99.90
14093;DHT22;7123;49.468;10.992;2024-02-26T02:40:33;7.70;99.90
14093;DHT22;7123;49.468;10.992;2024-02-26T02:42:59;7.70;99.90
14093;DHT22;7123;49.468;10.992;2024-02-26T02:45:28;7.70;99.90
14093;DHT22;7123;49.468;10.992;2024-02-26T02:47:55;7.70;99.90
14093;DHT22;7123;49.468;10.992;2024-02-26T02:50:22;7.70;99.90
14093;DHT22;7123;49.468;10.992;2024-02-26T02:52:49;7.70;99.90
14093;DHT22;7123;49.468;10.992;2024-02-26T02:55:17;7.70;99.90
14093;DHT22;7123;49.468;10.992;2024-02-26T02:57:44;7.70;99.90
14093;DHT22;7123;49.468;10.992;2024-02-26T03:00:12;7.80;99.90
14093;DHT22;7123;49.468;10.992;2024-02-26T03:02:39;7.70;99.90
14093;DHT22;7123;49.468;10.992;2024-02-26T03:05:06;7.70;99.90
14093;DHT22;7123;49.468;10.992;2024-02-26T03:07:33;7.70;99.90
14093;DHT22;7123;49.468;10.992;2024-02-26T03:10:01;7.70;99.90
14093;DHT22;7123;49.468;10.992;2024-02-26T03:12:27;7.70;99.90
14093;DHT22;7123;49.468;10.992;2024-02-26T03:14:55;7.70;99.90
14093;DHT22;7123;49.468;10.992;2024-02-26T03:17:22;7.70;99.90
14093;DHT22;7123;49.468;10.992;2024-02-26T03:19:51;7.70;99.90
14093;DHT22;7123;49.468;10.992;2024-02-26T03:22:20;7.60;99.90
14093;DHT22;7123;49.468;10.992;2024-02-26T03:24:47;7.60;99.90
14093;DHT22;7123;49.468;10.992;2024-02-26T03:27:14;7.60;99.90
14093;DHT22;7123;49.468;10.992;2024-02-26T03:29:41;7.70;99.90
14093;DHT22;7123;49.468;10.992;2024-02-26T03:32:08;7.70;99.90
14093;DHT22;7123;49.468;10.992;2024-02-26T03:34:35;7.70;99.90
14093;DHT22;7123;49.468;10.992;2024-02-26T03:37:02;7.70;99.90
14093;DHT22;7123;49.468;10.992;2024-02-26T03:39:29;7.70;99.90
14093;DHT22;7123;49.468;10.992;2024-02-26T03:41:55;7.70;99.90
14093;DHT22;7123;49.468;10.992;2024-02-26T03:44:22;7.70;99.90
14093;DHT22;7123;49.468;10.992;2024-02-26T03:46:49;7.70;99.90
14093;DHT22;7123;49.468;10.992;2024-02-26T03:49:16;7.70;99.90
14093;DHT22;7123;49.468;10.992;2024-02-26T03:51:43;7.70;99.90
14093;DHT22;7123;49.468;10.992;2024-02-26T03:54:10;7.70;99.90
14093;DHT22;7123;49.468;10.992;2024-02-26T03:56:36;7.70;99.90
14093;DHT22;7123;49.468;10.992;2024-02-26T03:59:03;7.70;99.90
14093;DHT22;7123;49.468;10.992;2024-02-26T04:01:30;7.70;99.90
14093;DHT22;7123;49.468;10.992;2024-02-26T04:03:57;7.70;99.90
14093;DHT22;7123;49.468;10.992;2024-02-26T04:06:24;7.70;99.90
14093;DHT22;7123;49.468;10.992;2024-02-26T04:08:51;7.70;99.90
14093;DHT22;7123;49.468;10.992;2024-02-26T04:11:18;7.70;99.90
14093;DHT22;7123;49.468;10.992;2024-02-26T04:13:45;7.70;99.90
14093;DHT22;7123;49.468;10.992;2024-02-26T04:16:13;7.70;99.90
14093;DHT22;7123;49.468;10.992;2024-02-26T04:18:40;7.70;99.90
14093;DHT22;7123;49.468;10.992;2024-02-26T04:21:06;7.70;99.90
14093;DHT22;7123;49.468;10.992;2024-02-26T04:23:34;7.70;99.90
14093;DHT22;7123;49.468;10.992;2024-02-26T04:26:01;7.60;99.90
14093;DHT22;7123;49.468;10.992;2024-02-26T04:28:28;7.60;99.90
14093;DHT22;7123;49.468;10.992;2024-02-26T04:30:56;7.60;99.90
14093;DHT22;7123;49.468;10.992;2024-02-26T04:33:22;7.70;99.90
14093;DHT22;7123;49.468;10.992;2024-02-26T04:35:49;7.60;99.90
14093;DHT22;7123;49.468;10.992;2024-02-26T04:38:16;7.60;99.90
14093;DHT22;7123;49.468;10.992;2024-02-26T04:40:43;7.60;99.90
14093;DHT22;7123;49.468;10.992;2024-02-26T04:43:10;7.60;99.90
14093;DHT22;7123;49.468;10.992;2024-02-26T04:45:36;7.60;99.90
14093;DHT22;7123;49.468;10.992;2024-02-26T04:48:03;7.70;99.90
14093;DHT22;7123;49.468;10.992;2024-02-26T04:50:30;7.60;99.90
14093;DHT22;7123;49.468;10.992;2024-02-26T04:52:57;7.60;99.90
14093;DHT22;7123;49.468;10.992;2024-02-26T04:55:24;7.60;99.90
14093;DHT22;7123;49.468;10.992;2024-02-26T04:57:51;7.50;99.90
14093;DHT22;7123;49.468;10.992;2024-02-26T05:00:18;7.50;99.90
14093;DHT22;7123;49.468;10.992;2024-02-26T05:02:44;7.50;99.90
14093;DHT22;7123;49.468;10.992;2024-02-26T05:05:12;7.50;99.90
14093;DHT22;7123;49.468;10.992;2024-02-26T05:07:40;7.50;99.90
14093;DHT22;7123;49.468;10.992;2024-02-26T05:10:08;7.40;99.90
14093;DHT22;7123;49.468;10.992;2024-02-26T05:12:35;7.50;99.90
14093;DHT22;7123;49.468;10.992;2024-02-26T05:15:03;7.50;99.90
14093;DHT22;7123;49.468;10.992;2024-02-26T05:17:30;7.50;99.90
14093;DHT22;7123;49.468;10.992;2024-02-26T05:19:57;7.50;99.90
14093;DHT22;7123;49.468;10.992;2024-02-26T05:22:23;7.50;99.90
14093;DHT22;7123;49.468;10.992;2024-02-26T05:24:50;7.50;99.90
14093;DHT22;7123;49.468;10.992;2024-02-26T05:27:18;7.50;99.90
14093;DHT22;7123;49.468;10.992;2024-02-26T05:29:45;7.70;99.90
14093;DHT22;7123;49.468;10.992;2024-02-26T05:32:12;7.60;99.90
14093;DHT22;7123;49.468;10.992;2024-02-26T05:34:38;7.60;99.90
14093;DHT22;7123;49.468;10.992;2024-02-26T05:37:06;7.60;99.90
14093;DHT22;7123;49.468;10.992;2024-02-26T05:39:34;7.60;99.90
14093;DHT22;7123;49.468;10.992;2024-02-26T05:42:01;7.50;99.90
14093;DHT22;7123;49.468;10.992;2024-02-26T05:44:28;7.60;99.90
14093;DHT22;7123;49.468;10.992;2024-02-26T05:46:54;7.40;99.90
14093;DHT22;7123;49.468;10.992;2024-02-26T05:49:22;7.10;99.90
14093;DHT22;7123;49.468;10.992;2024-02-26T05:51:49;7.20;99.90
14093;DHT22;7123;49.468;10.992;2024-02-26T05:54:16;7.10;99.90
14093;DHT22;7123;49.468;10.992;2024-02-26T05:56:43;7.10;99.90
14093;DHT22;7123;49.468;10.992;2024-02-26T05:59:10;7.10;99.90
14093;DHT22;7123;49.468;10.992;2024-02-26T06:01:37;7.20;99.90
14093;DHT22;7123;49.468;10.992;2024-02-26T06:04:03;7.20;99.90
14093;DHT22;7123;49.468;10.992;2024-02-26T06:06:30;7.40;99.90
14093;DHT22;7123;49.468;10.992;2024-02-26T06:08:57;7.30;99.90
14093;DHT22;7123;49.468;10.992;2024-02-26T06:11:24;7.40;99.90
14093;DHT22;7123;49.468;10.992;2024-02-26T06:13:51;7.40;99.90
14093;DHT22;7123;49.468;10.992;2024-02-26T06:16:18;7.40;99.90
14093;DHT22;7123;49.468;10.992;2024-02-26T06:18:44;7.40;99.90
14093;DHT22;7123;49.468;10.992;2024-02-26T06:21:11;7.50;99.90
14093;DHT22;7123;49.468;10.992;2024-02-26T06:23:39;7.50;99.90
14093;DHT22;7123;49.468;10.992;2024-02-26T06:26:07;7.50;99.90
14093;DHT22;7123;49.468;10.992;2024-02-26T06:28:33;7.60;99.90
14093;DHT22;7123;49.468;10.992;2024-02-26T06:31:02;7.60;99.90
14093;DHT22;7123;49.468;10.992;2024-02-26T06:33:29;7.60;99.90
14093;DHT22;7123;49.468;10.992;2024-02-26T06:35:56;7.60;99.90
14093;DHT22;7123;49.468;10.992;2024-02-26T06:38:23;7.60;99.90
14093;DHT22;7123;49.468;10.992;2024-02-26T06:40:50;7.60;99.90
14093;DHT22;7123;49.468;10.992;2024-02-26T06:43:16;7.50;99.90
14093;DHT22;7123;49.468;10.992;2024-02-26T06:45:43;7.50;99.90
14093;DHT22;7123;49.468;10.992;2024-02-26T06:48:10;7.40;99.90
14093;DHT22;7123;49.468;10.992;2024-02-26T06:50:37;7.40;99.90
14093;DHT22;7123;49.468;10.992;2024-02-26T06:53:04;7.40;99.90
14093;DHT22;7123;49.468;10.992;2024-02-26T06:55:31;7.50;99.90
14093;DHT22;7123;49.468;10.992;2024-02-26T06:57:58;7.50;99.90
14093;DHT22;7123;49.468;10.992;2024-02-26T07:00:25;7.50;99.90
14093;DHT22;7123;49.468;10.992;2024-02-26T07:02:52;7.50;99.90
14093;DHT22;7123;49.468;10.992;2024-02-26T07:05:19;7.60;99.90
14093;DHT22;7123;49.468;10.992;2024-02-26T07:07:45;7.60;99.90
14093;DHT22;7123;49.468;10.992;2024-02-26T07:10:12;7.60;99.90
14093;DHT22;7123;49.468;10.992;2024-02-26T07:12:39;7.60;99.90
14093;DHT22;7123;49.468;10.992;2024-02-26T07:15:07;7.60;99.90
14093;DHT22;7123;49.468;10.992;2024-02-26T07:17:34;7.60;99.90
14093;DHT22;7123;49.468;10.992;2024-02-26T07:20:01;7.60;99.90
14093;DHT22;7123;49.468;10.992;2024-02-26T07:22:34;7.60;99.90
14093;DHT22;7123;49.468;10.992;2024-02-26T07:25:01;7.50;99.90
14093;DHT22;7123;49.468;10.992;2024-02-26T07:27:27;7.50;99.90
14093;DHT22;7123;49.468;10.992;2024-02-26T07:29:54;7.50;99.90
14093;DHT22;7123;49.468;10.992;2024-02-26T07:32:21;7.50;99.90
14093;DHT22;7123;49.468;10.992;2024-02-26T07:34:48;7.50;99.90
14093;DHT22;7123;49.468;10.992;2024-02-26T07:37:15;7.60;99.90
14093;DHT22;7123;49.468;10.992;2024-02-26T07:39:42;7.60;99.90
14093;DHT22;7123;49.468;10.992;2024-02-26T07:42:09;7.70;99.90
14093;DHT22;7123;49.468;10.992;2024-02-26T07:44:38;7.70;99.90
14093;DHT22;7123;49.468;10.992;2024-02-26T07:47:09;7.70;99.90
14093;DHT22;7123;49.468;10.992;2024-02-26T07:49:36;7.80;99.90
14093;DHT22;7123;49.468;10.992;2024-02-26T07:52:05;7.80;99.90
14093;DHT22;7123;49.468;10.992;2024-02-26T07:54:32;7.70;99.90
14093;DHT22;7123;49.468;10.992;2024-02-26T07:56:59;7.70;99.90
14093;DHT22;7123;49.468;10.992;2024-02-26T07:59:26;7.70;99.90
14093;DHT22;7123;49.468;10.992;2024-02-26T08:01:53;7.70;99.90
14093;DHT22;7123;49.468;10.992;2024-02-26T08:04:24;7.70;99.90
14093;DHT22;7123;49.468;10.992;2024-02-26T08:06:53;7.80;99.90
14093;DHT22;7123;49.468;10.992;2024-02-26T08:09:20;7.70;99.90
14093;DHT22;7123;49.468;10.992;2024-02-26T08:11:47;7.80;99.90
14093;DHT22;7123;49.468;10.992;2024-02-26T08:14:14;7.80;99.90
14093;DHT22;7123;49.468;10.992;2024-02-26T08:16:42;7.80;99.90
14093;DHT22;7123;49.468;10.992;2024-02-26T08:19:08;7.80;99.90
14093;DHT22;7123;49.468;10.992;2024-02-26T08:21:37;7.80;99.90
14093;DHT22;7123;49.468;10.992;2024-02-26T08:24:04;7.80;99.90
14093;DHT22;7123;49.468;10.992;2024-02-26T08:26:31;7.80;99.90
14093;DHT22;7123;49.468;10.992;2024-02-26T08:28:58;7.80;99.90
14093;DHT22;7123;49.468;10.992;2024-02-26T08:31:24;7.90;99.90
14093;DHT22;7123;49.468;10.992;2024-02-26T08:33:51;7.90;99.90
14093;DHT22;7123;49.468;10.992;2024-02-26T08:36:20;7.90;99.90
14093;DHT22;7123;49.468;10.992;2024-02-26T08:38:46;7.90;99.90
14093;DHT22;7123;49.468;10.992;2024-02-26T08:41:13;8.00;99.90
14093;DHT22;7123;49.468;10.992;2024-02-26T08:43:40;8.00;99.90
14093;DHT22;7123;49.468;10.992;2024-02-26T08:46:10;8.00;99.90
14093;DHT22;7123;49.468;10.992;2024-02-26T08:48:39;8.00;99.90
14093;DHT22;7123;49.468;10.992;2024-02-26T08:51:07;8.00;99.90
14093;DHT22;7123;49.468;10.992;2024-02-26T08:53:35;8.00;99.90
14093;DHT22;7123;49.468;10.992;2024-02-26T08:56:09;8.00;99.90
14093;DHT22;7123;49.468;10.992;2024-02-26T08:58:38;8.00;99.90
14093;DHT22;7123;49.468;10.992;2024-02-26T09:01:05;8.00;99.90
14093;DHT22;7123;49.468;10.992;2024-02-26T09:03:31;8.00;99.90
14093;DHT22;7123;49.468;10.992;2024-02-26T09:05:58;8.00;99.90
14093;DHT22;7123;49.468;10.992;2024-02-26T09:08:25;8.00;99.90
14093;DHT22;7123;49.468;10.992;2024-02-26T09:10:52;8.00;99.90
14093;DHT22;7123;49.468;10.992;2024-02-26T09:13:19;8.00;99.90
14093;DHT22;7123;49.468;10.992;2024-02-26T09:15:46;8.10;99.90
14093;DHT22;7123;49.468;10.992;2024-02-26T09:18:12;8.10;99.90
14093;DHT22;7123;49.468;10.992;2024-02-26T09:20:41;8.30;99.90
14093;DHT22;7123;49.468;10.992;2024-02-26T09:23:09;8.20;99.90
14093;DHT22;7123;49.468;10.992;2024-02-26T09:25:36;8.30;99.90
14093;DHT22;7123;49.468;10.992;2024-02-26T09:28:03;8.30;99.90
14093;DHT22;7123;49.468;10.992;2024-02-26T09:30:30;8.40;99.90
14093;DHT22;7123;49.468;10.992;2024-02-26T09:32:57;8.50;99.90
14093;DHT22;7123;49.468;10.992;2024-02-26T09:35:24;8.50;99.90
14093;DHT22;7123;49.468;10.992;2024-02-26T09:37:51;8.60;99.90
14093;DHT22;7123;49.468;10.992;2024-02-26T09:40:18;8.60;99.90
14093;DHT22;7123;49.468;10.992;2024-02-26T09:42:45;8.60;99.90
14093;DHT22;7123;49.468;10.992;2024-02-26T09:45:18;8.60;99.90
14093;DHT22;7123;49.468;10.992;2024-02-26T09:47:45;8.50;99.90
14093;DHT22;7123;49.468;10.992;2024-02-26T09:50:14;8.40;99.90
14093;DHT22;7123;49.468;10.992;2024-02-26T09:52:44;8.30;99.90
14093;DHT22;7123;49.468;10.992;2024-02-26T09:55:11;8.30;99.90
14093;DHT22;7123;49.468;10.992;2024-02-26T09:57:40;8.30;99.90
14093;DHT22;7123;49.468;10.992;2024-02-26T10:00:20;8.30;99.90
14093;DHT22;7123;49.468;10.992;2024-02-26T10:02:57;8.30;99.90
14093;DHT22;7123;49.468;10.992;2024-02-26T10:05:26;8.40;99.90
14093;DHT22;7123;49.468;10.992;2024-02-26T10:07:53;8.40;99.90
14093;DHT22;7123;49.468;10.992;2024-02-26T10:10:22;8.40;99.90
14093;DHT22;7123;49.468;10.992;2024-02-26T10:12:49;8.50;99.90
14093;DHT22;7123;49.468;10.992;2024-02-26T10:15:16;8.60;99.90
14093;DHT22;7123;49.468;10.992;2024-02-26T10:17:43;8.70;99.90
14093;DHT22;7123;49.468;10.992;2024-02-26T10:20:15;8.80;99.90
14093;DHT22;7123;49.468;10.992;2024-02-26T10:22:46;8.90;99.90
14093;DHT22;7123;49.468;10.992;2024-02-26T10:25:13;8.90;99.90
14093;DHT22;7123;49.468;10.992;2024-02-26T10:27:40;9.00;99.90
14093;DHT22;7123;49.468;10.992;2024-02-26T10:32:46;9.00;99.90
14093;DHT22;7123;49.468;10.992;2024-02-26T10:35:16;9.10;99.90
14093;DHT22;7123;49.468;10.992;2024-02-26T10:37:50;9.10;99.90
14093;DHT22;7123;49.468;10.992;2024-02-26T10:40:17;9.20;99.90
14093;DHT22;7123;49.468;10.992;2024-02-26T10:42:44;9.20;99.90
14093;DHT22;7123;49.468;10.992;2024-02-26T10:45:12;9.20;99.90
14093;DHT22;7123;49.468;10.992;2024-02-26T10:47:40;9.30;99.90
14093;DHT22;7123;49.468;10.992;2024-02-26T10:50:08;9.30;99.90
14093;DHT22;7123;49.468;10.992;2024-02-26T10:52:36;9.40;99.90
14093;DHT22;7123;49.468;10.992;2024-02-26T10:55:05;9.50;99.90
14093;DHT22;7123;49.468;10.992;2024-02-26T10:57:44;9.60;99.90
14093;DHT22;7123;49.468;10.992;2024-02-26T11:00:15;9.70;99.90
14093;DHT22;7123;49.468;10.992;2024-02-26T11:02:44;9.70;99.90
14093;DHT22;7123;49.468;10.992;2024-02-26T11:05:12;9.70;99.90
14093;DHT22;7123;49.468;10.992;2024-02-26T11:07:40;9.60;99.90
14093;DHT22;7123;49.468;10.992;2024-02-26T11:10:11;9.70;99.90
14093;DHT22;7123;49.468;10.992;2024-02-26T11:12:39;9.60;99.90
14093;DHT22;7123;49.468;10.992;2024-02-26T11:15:08;9.60;99.90
14093;DHT22;7123;49.468;10.992;2024-02-26T11:17:35;9.80;99.90
14093;DHT22;7123;49.468;10.992;2024-02-26T11:20:04;9.90;99.90
14093;DHT22;7123;49.468;10.992;2024-02-26T11:22:32;10.00;99.90
14093;DHT22;7123;49.468;10.992;2024-02-26T11:24:59;10.00;99.90
14093;DHT22;7123;49.468;10.992;2024-02-26T11:27:30;10.00;99.90
14093;DHT22;7123;49.468;10.992;2024-02-26T11:30:01;10.00;99.90
14093;DHT22;7123;49.468;10.992;2024-02-26T11:32:30;9.90;99.90
14093;DHT22;7123;49.468;10.992;2024-02-26T11:34:58;9.90;99.90
14093;DHT22;7123;49.468;10.992;2024-02-26T11:37:25;9.90;99.90
14093;DHT22;7123;49.468;10.992;2024-02-26T11:39:52;9.90;99.90
14093;DHT22;7123;49.468;10.992;2024-02-26T11:42:23;10.00;99.90
14093;DHT22;7123;49.468;10.992;2024-02-26T11:44:55;10.00;99.90
14093;DHT22;7123;49.468;10.992;2024-02-26T11:47:27;10.20;99.90
14093;DHT22;7123;49.468;10.992;2024-02-26T11:49:54;10.30;99.90
14093;DHT22;7123;49.468;10.992;2024-02-26T11:52:22;10.30;99.90
14093;DHT22;7123;49.468;10.992;2024-02-26T11:54:58;10.30;99.90
14093;DHT22;7123;49.468;10.992;2024-02-26T12:00:10;10.10;99.90
14093;DHT22;7123;49.468;10.992;2024-02-26T12:02:44;10.10;99.90
14093;DHT22;7123;49.468;10.992;2024-02-26T12:05:16;10.10;99.90
14093;DHT22;7123;49.468;10.992;2024-02-26T12:08:10;10.10;99.90
14093;DHT22;7123;49.468;10.992;2024-02-26T12:10:37;10.20;99.90
14093;DHT22;7123;49.468;10.992;2024-02-26T12:13:08;10.20;99.90
14093;DHT22;7123;49.468;10.992;2024-02-26T12:15:45;10.20;99.90
14093;DHT22;7123;49.468;10.992;2024-02-26T12:18:17;10.10;99.90
14093;DHT22;7123;49.468;10.992;2024-02-26T12:20:44;10.10;99.90
14093;DHT22;7123;49.468;10.992;2024-02-26T12:23:16;10.10;99.90
14093;DHT22;7123;49.468;10.992;2024-02-26T12:25:44;10.20;99.90
14093;DHT22;7123;49.468;10.992;2024-02-26T12:28:10;10.30;99.90
14093;DHT22;7123;49.468;10.992;2024-02-26T12:30:37;10.30;99.90
14093;DHT22;7123;49.468;10.992;2024-02-26T12:33:04;10.30;99.90
14093;DHT22;7123;49.468;10.992;2024-02-26T12:35:33;10.30;99.90
14093;DHT22;7123;49.468;10.992;2024-02-26T12:38:01;10.30;99.90
14093;DHT22;7123;49.468;10.992;2024-02-26T12:40:31;10.30;99.90
14093;DHT22;7123;49.468;10.992;2024-02-26T12:42:58;10.30;99.90
14093;DHT22;7123;49.468;10.992;2024-02-26T12:45:25;10.30;99.90
14093;DHT22;7123;49.468;10.992;2024-02-26T12:47:53;10.40;99.90
14093;DHT22;7123;49.468;10.992;2024-02-26T12:50:19;10.40;99.90
14093;DHT22;7123;49.468;10.992;2024-02-26T12:52:47;10.40;99.90
14093;DHT22;7123;49.468;10.992;2024-02-26T12:55:19;10.40;99.90
14093;DHT22;7123;49.468;10.992;2024-02-26T12:57:48;10.50;99.90
14093;DHT22;7123;49.468;10.992;2024-02-26T13:00:20;10.60;99.90
14093;DHT22;7123;49.468;10.992;2024-02-26T13:02:49;10.70;99.90
14093;DHT22;7123;49.468;10.992;2024-02-26T13:05:18;10.70;99.90
14093;DHT22;7123;49.468;10.992;2024-02-26T13:07:46;10.70;99.90
14093;DHT22;7123;49.468;10.992;2024-02-26T13:10:17;10.80;99.90
14093;DHT22;7123;49.468;10.992;2024-02-26T13:12:46;10.80;99.90
14093;DHT22;7123;49.468;10.992;2024-02-26T13:15:18;10.90;99.90
14093;DHT22;7123;49.468;10.992;2024-02-26T13:17:45;10.90;99.90
14093;DHT22;7123;49.468;10.992;2024-02-26T13:20:13;11.00;99.90
14093;DHT22;7123;49.468;10.992;2024-02-26T13:22:41;11.10;99.90
14093;DHT22;7123;49.468;10.992;2024-02-26T13:25:08;11.10;99.90
14093;DHT22;7123;49.468;10.992;2024-02-26T13:27:35;11.10;99.90
14093;DHT22;7123;49.468;10.992;2024-02-26T13:30:11;11.10;99.90
14093;DHT22;7123;49.468;10.992;2024-02-26T13:32:40;11.20;99.90
14093;DHT22;7123;49.468;10.992;2024-02-26T13:35:12;11.30;99.90
14093;DHT22;7123;49.468;10.992;2024-02-26T13:37:39;11.30;99.90
14093;DHT22;7123;49.468;10.992;2024-02-26T13:40:10;11.30;99.90
14093;DHT22;7123;49.468;10.992;2024-02-26T13:42:38;11.30;99.90
14093;DHT22;7123;49.468;10.992;2024-02-26T13:45:06;11.30;99.90
14093;DHT22;7123;49.468;10.992;2024-02-26T13:47:36;11.20;99.90
14093;DHT22;7123;49.468;10.992;2024-02-26T13:50:03;11.20;99.90
14093;DHT22;7123;49.468;10.992;2024-02-26T13:52:30;11.20;99.90
14093;DHT22;7123;49.468;10.992;2024-02-26T13:54:59;11.20;99.90
14093;DHT22;7123;49.468;10.992;2024-02-26T13:57:26;11.20;99.90
14093;DHT22;7123;49.468;10.992;2024-02-26T13:59:53;11.20;99.90
14093;DHT22;7123;49.468;10.992;2024-02-26T14:02:20;11.20;99.90
14093;DHT22;7123;49.468;10.992;2024-02-26T14:04:47;11.20;99.90
14093;DHT22;7123;49.468;10.992;2024-02-26T14:07:15;11.30;99.90
14093;DHT22;7123;49.468;10.992;2024-02-26T14:09:43;11.30;99.90
14093;DHT22;7123;49.468;10.992;2024-02-26T14:12:16;11.40;99.90
14093;DHT22;7123;49.468;10.992;2024-02-26T14:14:48;11.60;99.90
14093;DHT22;7123;49.468;10.992;2024-02-26T14:17:15;11.70;99.90
14093;DHT22;7123;49.468;10.992;2024-02-26T14:19:42;11.70;99.90
14093;DHT22;7123;49.468;10.992;2024-02-26T14:22:14;11.70;99.90
14093;DHT22;7123;49.468;10.992;2024-02-26T14:24:44;11.70;99.90
14093;DHT22;7123;49.468;10.992;2024-02-26T14:27:13;11.60;99.90
14093;DHT22;7123;49.468;10.992;2024-02-26T14:29:43;11.50;99.90
14093;DHT22;7123;49.468;10.992;2024-02-26T14:32:10;11.50;99.90
14093;DHT22;7123;49.468;10.992;2024-02-26T14:34:37;11.60;99.90
14093;DHT22;7123;49.468;10.992;2024-02-26T14:37:04;11.70;99.90
14093;DHT22;7123;49.468;10.992;2024-02-26T14:39:32;11.70;99.90
14093;DHT22;7123;49.468;10.992;2024-02-26T14:42:00;11.70;99.90
14093;DHT22;7123;49.468;10.992;2024-02-26T14:44:27;11.60;99.90
14093;DHT22;7123;49.468;10.992;2024-02-26T14:46:54;11.50;99.90
14093;DHT22;7123;49.468;10.992;2024-02-26T14:49:21;11.40;99.90
14093;DHT22;7123;49.468;10.992;2024-02-26T14:51:48;11.30;99.90
14093;DHT22;7123;49.468;10.992;2024-02-26T14:54:15;11.30;99.90
14093;DHT22;7123;49.468;10.992;2024-02-26T14:56:42;11.20;99.90
14093;DHT22;7123;49.468;10.992;2024-02-26T14:59:09;11.10;99.90
14093;DHT22;7123;49.468;10.992;2024-02-26T15:01:36;11.00;99.90
14093;DHT22;7123;49.468;10.992;2024-02-26T15:04:03;11.00;99.90
14093;DHT22;7123;49.468;10.992;2024-02-26T15:06:30;10.90;99.90
14093;DHT22;7123;49.468;10.992;2024-02-26T15:08:57;10.90;99.90
14093;DHT22;7123;49.468;10.992;2024-02-26T15:11:24;10.80;99.90
14093;DHT22;7123;49.468;10.992;2024-02-26T15:13:51;10.70;99.90
14093;DHT22;7123;49.468;10.992;2024-02-26T15:16:19;10.80;99.90
14093;DHT22;7123;49.468;10.992;2024-02-26T15:18:47;10.70;99.90
14093;DHT22;7123;49.468;10.992;2024-02-26T15:21:15;10.60;99.90
14093;DHT22;7123;49.468;10.992;2024-02-26T15:23:44;10.60;99.90
14093;DHT22;7123;49.468;10.992;2024-02-26T15:26:30;10.60;99.90
14093;DHT22;7123;49.468;10.992;2024-02-26T15:28:57;10.60;99.90
14093;DHT22;7123;49.468;10.992;2024-02-26T15:31:23;10.60;99.90
14093;DHT22;7123;49.468;10.992;2024-02-26T15:33:50;10.60;99.90
14093;DHT22;7123;49.468;10.992;2024-02-26T15:36:17;10.50;99.90
14093;DHT22;7123;49.468;10.992;2024-02-26T15:38:44;10.50;99.90
14093;DHT22;7123;49.468;10.992;2024-02-26T15:41:12;10.50;99.90
14093;DHT22;7123;49.468;10.992;2024-02-26T15:43:40;10.50;99.90
14093;DHT22;7123;49.468;10.992;2024-02-26T15:46:07;10.50;99.90
14093;DHT22;7123;49.468;10.992;2024-02-26T15:48:38;10.40;99.90
14093;DHT22;7123;49.468;10.992;2024-02-26T15:51:05;10.40;99.90